Historyczne dane pomiarowe

Dodano dane terminowe – wersja testowa.

Dane z okresu 1951-2019

Wersja bazy: 1.34 [2019-03-16, lista zmian], aktualizacja planowana na 2019-04-15

Dane meteo z obszaru Polski uzyskane na podstawie danych udostępnionych przez Instytut Meteorologii i Gospodarki Wodnej – Państwowy Instytut Badawczy.

 

Wybierz Datę:    

       

TemperaturaWilgotnośćWiatrCiśnienieOpadyŚniegCzas trwania zjawisk
 Stacja t tx tn tng RH VA  wxwx mslp ppp RRR   cm mm wxwxwxwxwxwxwx
1961-08-14 13.2 19.3 4.3 1.5-- 3.3 1.0---- 0.0------------
1961-08-13 11.6 17.3 8.0 10.1-- 7.3 0.7---- 1.3------------
1961-08-12 14.8 16.3 13.8 10.2-- 7.3 2.3---- 26.1------------
1961-08-11 18.0 21.3 15.4 13.2-- 8.0 0.3---- 12.3------------
1961-08-10 21.4 26.4 15.5 10.8-- 8.0 0.7---- 2.1------------
1961-08-09 18.2 22.8 13.8 12.1-- 4.0 1.7---- 10.8------------
1961-08-08 16.7 23.8 12.9 6.1-- 1.7 1.3---- 0.0------------
1961-08-07 17.4 22.8 14.2 14.9-- 6.3 1.0---- 4.3------------
1961-08-06 22.5 27.8 14.7 13.1-- 0.3 2.0---- 2.1------------
1961-08-05 17.9 22.9 10.1 8.1-- 1.7 1.0---- 2.1------------
1961-08-04 14.0 18.5 9.7 7.4-- 4.0 0.7---- 1.1------------
1961-08-03 13.4 20.3 9.4 6.6-- 6.0 1.3---- 4.8------------
1961-08-02 14.3 22.8 8.0 8.1-- 3.7 1.0---- 2.9------------
1961-08-01 13.2 18.8 9.6 9.0-- 2.0 3.3---- 0.0------------
1961-07-31 12.0 15.0 8.9 8.2-- 6.0 0.0---- 4.1------------
1961-07-30 10.8 13.7 6.8 6.7-- 8.0 0.0---- 11.6------------
1961-07-29 10.3 14.3 8.4 6.5-- 6.7 0.3---- 2.1------------
1961-07-28 11.5 16.5 9.3 6.2-- 7.7 1.7---- 35.4------------
1961-07-27 14.7 20.9 11.4 11.0-- 6.7 1.7---- 8.1------------
1961-07-26 15.9 21.9 8.0 5.6-- 2.0 1.7---- 0.0------------
1961-07-25 10.7 15.2 6.6 5.3-- 4.7 0.0---- 0.0------------
1961-07-24 10.8 15.5 8.4 8.5-- 7.3 0.0---- 0.0------------
1961-07-23 12.0 15.9 10.1 7.8-- 8.0 0.0---- 0.0------------
1961-07-22 11.9 16.2 8.4 6.0-- 6.7 1.7---- 0.1------------
1961-07-21 12.3 15.5 7.9 5.8-- 8.0 3.7---- 2.1------------
1961-07-20 12.6 16.0 8.6 6.4-- 7.7 2.7---- 9.3------------
1961-07-19 12.8 16.8 10.0 9.7-- 7.7 2.3---- 1.4------------
1961-07-18 12.6 17.0 9.3 7.2-- 6.7 2.3---- 0.3------------
1961-07-17 14.4 16.6 11.2 8.0-- 5.7 2.0---- 1.2------------
1961-07-16 16.5 22.9 10.7 7.1-- 2.3 2.0---- 9.3------------
1961-07-15 15.8 21.0 10.0 6.4-- 6.0 3.3---- 11.4------------
1961-07-14 13.0 20.8 9.2 6.1-- 5.3 4.3---- 0.6------------
1961-07-13 15.6 19.9 11.8 11.3-- 5.3 4.3---- 5.3------------
1961-07-12 19.6 25.3 11.5 8.4-- 4.3 1.7---- 5.4------------
1961-07-11 16.3 20.8 7.3 7.5-- 6.0 3.0---- 4.2------------
1961-07-10 10.8 16.7 7.9 5.8-- 3.7 1.0---- 4.8------------
1961-07-09 11.5 13.5 7.1 5.3-- 8.0 3.7---- 11.1------------
1961-07-08 12.7 20.1 5.0 4.1-- 3.0 1.3---- 3.3------------
1961-07-07 11.8 15.3 8.1 8.1-- 6.7 1.7---- 0.0------------
1961-07-06 9.8 12.9 7.4 4.8-- 1.7 2.3---- 0.0------------
1961-07-05 10.5 17.0 8.4 7.5-- 4.0 1.0---- 3.2------------
1961-07-04 16.8 24.8 13.8 12.0-- 4.7 1.0---- 0.2------------
1961-07-03 20.1 28.9 14.9 11.2-- 1.3 0.3---- 0.0------------
1961-07-02 19.2 28.6 11.2 10.1-- 0.3 2.0---- 0.0------------
1961-07-01 18.6 27.4 12.9 10.1-- 0.7 0.0---- 0.0------------
1961-06-30 18.7 25.5 11.0 8.7-- 0.0 0.0---- 0.0------------
1961-06-29 16.6 22.7 6.8 6.7-- 1.0 0.7---- 0.0------------
1961-06-28 11.4 19.2 9.1 10.1-- 4.7 3.0---- 0.9------------
1961-06-27 21.3 25.8 14.8 11.3-- 5.7 0.3---- 9.2------------
1961-06-26 16.5 22.3 14.8 12.1-- 5.3 1.0---- 0.5------------
1961-06-25 20.6 26.9 12.0 10.0-- 0.0 1.3---- 0.0------------
1961-06-24 18.6 24.3 10.3 7.3-- 0.0 0.3---- 0.0------------
1961-06-23 17.3 24.9 9.9 8.2-- 0.0 0.0---- 0.0------------
1961-06-22 14.7 21.5 10.7 8.2-- 3.7 0.7---- 1.3------------
1961-06-21 14.8 22.8 8.8 5.6-- 0.3 0.7---- 0.0------------
1961-06-20 12.5 20.3 6.2 6.1-- 0.0 0.7---- 0.0------------
1961-06-19 14.5 21.3 12.4 9.4-- 5.3 1.7---- 0.2------------
1961-06-18 16.9 21.7 10.4 8.9-- 0.0 2.3---- 0.0------------
1961-06-17 14.1 21.8 4.1 4.0-- 0.7 0.7---- 0.0------------
1961-06-16 12.0 17.8 3.1 2.0-- 0.0 0.7---- 0.0------------
255.2 ms

 

Źródłem pochodzenia danych jest Instytut Meteorologii i Gospodarki Wodnej – Państwowy Instytut Badawczy. Dane Instytutu Meteorologii i Gospodarki Wodnej – Państwowego Instytutu Badawczego zostały przetworzone.

Dane źródłowe można odnaleźć na stronie https://dane.imgw.pl